EGDY

Details ICAO EGDY (YEO)
Name RNAS Yeovilton
Region United Kingdom
Timezone Europe/London (UTC+0.0)
Plans Departing 3
Arriving 8
Stats Elevation 75 ft / 23 m (AMSL)
Location 51.008601° -2.641619°
Runways 2
Magnetic Variation 1.274° W
Sunrise 2017-12-12 08:06:08 UTC / 2017-12-12 08:06:08 Local
Sunset 2017-12-12 16:05:20 UTC / 2017-12-12 16:05:20 Local
Advertisement - Login to hide

Runways

ID Width Length Bearing (true) Bearing (mag) Surface Threshold Offset Overrun Length
04 151 ft / 46 m 4,810 ft / 1,466 m 36.95° 38.22° Concrete 0 ft / 0 m 0 ft / 0 m
09 151 ft / 46 m 7,569 ft / 2,307 m 83.05° 84.32° Concrete 0 ft / 0 m 0 ft / 0 m
22 151 ft / 46 m 4,810 ft / 1,466 m 216.96° 218.23° Concrete 0 ft / 0 m 0 ft / 0 m
27 151 ft / 46 m 7,569 ft / 2,307 m 263.07° 264.34° Concrete 75 ft / 23 m 0 ft / 0 m

Map

Weather


0- 5 10 15 20 25 30 35+ Temperature / ° C

Clouds and Precipitation
Forecast for 2017-12-12 18:00 UTC. Updated 26 minutes ago

Ground ~20,000 ft ~40,000 ft Winds

METAR

EGDY 121450Z 15004KT 9999 FEW025 SCT080 BKN180 05/03 Q1009 BLU NOSIG

TAF

Not found

Frequencies

Tower 122.10 MHz TWR
Approach 127.35 MHz RADAR
Warning: Do not use this data for real-world aviation or navigation. No guarantee of current accuracy is given.